Doty, WA

8:57 AM PST on December 26, 2014 (GMT -0800)
VFWS03 | Change Station
CLOSE
Current Station
Personal Weather Station
Location: Oakville, WA
Elevation: 112 ft
Nearby Weather Stations

Elev 112 ft 46.81 °N, 123.16 °W | Updated 6 seconds ago

Overcast
Overcast
39.7 °F
Feels Like 40 °F
N
2.9
Wind Variable Wind from ESE
Gusts 3.0 mph

Today
High -- | Low -- °F
--% Chance of Precip.
Yesterday
High -- | Low -- °F
Precip. -- in
7:56 AM 4:31 PM
Waxing Crescent, 27% visible
Pressure 30.37 in
Visibility 10.0 miles
Clouds Overcast 1700 ft
Windchill 40 °F
Dew Point 40 °F
Humidity 100%
Rainfall 0.00 in
Snow Depth Not available.
UV 0 out of 12
Pollen 1.30 out of 12
Air Quality Not available.
Flu Activity Not available.
METAR KCLS 261655Z AUTO 00000KT 10SM OVC017 05/05 A3037 RMK AO2

More Conditions Fewer Conditions

Pressure 30.37 in
Visibility 10.0 miles
Clouds Overcast 1700 ft
Windchill 40 °F
Dew Point 40 °F
Humidity 100%
Rainfall 0.00 in
Snow Depth Not available.
UV 0 out of 12
Pollen 1.30 out of 12
Air Quality Not available.
Flu Activity Not available.
METAR KCLS 261655Z AUTO 00000KT 10SM OVC017 05/05 A3037 RMK AO2

More Conditions Fewer Conditions

10-Day Weather Forecast

Almanac

Astronomy

Dec. 26, 2014 Rise Set
Actual Time
Civil Twilight
Nautical Twilight
Astronomical Twilight
Moon
Length of Visible Light
Length of Day
Tomorrow will be .
, % of the Moon is Illuminated

Today's Extremes

State Highs State Lows

Community

WunderPhotos

Upload Photos

1,780,632 photos uploaded!

WunderBlogs® & News

Nearby

Air Quality

  Air Quality AQ Index Pollutant
Not available.

Snow Depth

Station Depth Elevation

Earthquake Activity

City Distance Mag. Time & Date
Minimum magnitude displayed is 2.5.

Coastal Water Temperatures

Place Temperature

Nearby Weather Stations